• Join FlightAware (Why Join?)
  • Login
  • US Flag 
02:12PM EDT


 

Airport Tracker/Info


-or-


 

Live Flight TrackerFlight Track Log ✈ UAL4236 ✈ 09-Apr-2013 ✈ KBHM - KIAH

Flight Track Log - Related Links

Times and Time Zones

All times are in EDT time to prevent confusion due to time zone crossing. See the UAL4236 flight status page for this flight to view local times or setup timezone preferences in your user account.

Time Position Orientation Groundspeed Altitude Reporting Facility
EDT Latitude Longitude Course Direction KTS MPH feet Rate Location/Type
07:42AM 33.5553 -86.7708 231° Southwest 167 192 1,100  Level Atlanta Center
07:42AM 33.5400 -86.8003 238° Southwest 169 194 2,500 1,680 Climbing Atlanta Center
07:43AM 33.5289 -86.8347 249° West 219 252 3,200 1,680 Climbing Atlanta Center
07:44AM 33.4900 -86.8908 230° Southwest 226 260 5,300 2,040 Climbing Atlanta Center
07:45AM 33.3727 -87.0150 230° Southwest  Level FlightAware Approximate
07:45AM 33.4447 -86.9542 229° Southwest 243 280 7,300  Level Atlanta Center
07:46AM 33.3111 -87.1012 229° Southwest  Level FlightAware Approximate
07:46AM 33.3969 -87.0247 231° Southwest 259 298 9,400  Level Atlanta Center
07:47AM 33.2515 -87.1895 231° Southwest  Level FlightAware Approximate
07:47AM 33.3472 -87.0925 229° Southwest 270 311 11,600  Level Atlanta Center
07:48AM 33.3019 -87.1581 230° Southwest 270 311 14,200 2,400 Climbing Atlanta Center
07:49AM 33.2564 -87.2236 230° Southwest 270 311 16,400 1,920 Climbing Atlanta Center
07:50AM 33.2131 -87.2839 229° Southwest 260 299 18,100 1,680 Climbing Atlanta Center
07:51AM 33.1675 -87.3467 229° Southwest 255 293 19,800 1,800 Climbing Atlanta Center
07:52AM 33.1219 -87.4119 230° Southwest 255 293 21,800 1,800 Climbing Atlanta Center
07:53AM 33.0742 -87.4794 230° Southwest 255 293 23,500 1,320 Climbing Atlanta Center
07:55AM 33.0056 -87.6447 244° Southwest 283 326 25,700 840 Climbing Memphis Center
07:56AM 32.9722 -87.7425 248° West 308 354 26,000 120 Climbing Memphis Center
07:57AM 32.9386 -87.8422 248° West 331 381 26,000  Level Memphis Center
07:58AM 32.9014 -87.9672 251° West 377 434 26,000  Level Memphis Center
07:59AM 32.8558 -88.0944 247° West 403 464 26,000  Level Memphis Center
08:00AM 32.8142 -88.2217 249° West 416 479 26,000  Level Memphis Center
08:01AM 32.7667 -88.3661 249° West 421 484 26,000  Level Memphis Center
08:02AM 32.7186 -88.5006 247° West 432 497 26,000  Level Memphis Center
08:03AM 32.6725 -88.6297 247° West 437 503 26,000  Level Memphis Center
08:04AM 32.6261 -88.7639 248° West 437 503 26,000  Level Memphis Center
08:05AM 32.5692 -88.8881 241° Southwest 437 503 26,000  Level Memphis Center
08:06AM 32.4911 -88.9953 229° Southwest 437 503 26,000  Level Memphis Center
08:07AM 32.4067 -89.1047 228° Southwest 443 510 26,000  Level Memphis Center
08:08AM 32.3242 -89.2092 227° Southwest 443 510 26,000  Level Memphis Center
08:09AM 32.2394 -89.3133 226° Southwest 443 510 26,000  Level Memphis Center
08:10AM 32.1547 -89.4175 226° Southwest 443 510 26,000  Level Memphis Center
08:12AM 32.0247 -89.6386 235° Southwest 440 506 26,000  Level Houston Center
08:13AM 31.9847 -89.8028 254° West 438 504 26,000 -60 Level Houston Center
08:14AM 31.9475 -89.9236 250° West 427 491 25,900 -60 Descending Houston Center
08:15AM 31.8953 -90.0467 243° Southwest 422 486 25,900  Level Houston Center
08:16AM 31.8528 -90.1719 248° West 415 478 26,000  Climbing Houston Center
08:17AM 31.8219 -90.3017 254° West 412 474 26,000 -60 Level Houston Center
08:18AM 31.7839 -90.4550 254° West 408 470 25,900  Descending Houston Center
08:19AM 31.7553 -90.5708 254° West 376 433 26,000  Climbing Houston Center
08:20AM 31.7239 -90.6972 254° West 400 460 26,000  Level Houston Center
08:21AM 31.6914 -90.8275 254° West 414 476 26,000  Level Houston Center
08:22AM 31.6578 -90.9619 254° West 428 493 26,000  Level Houston Center
08:23AM 31.6239 -91.0972 254° West 433 498 26,000  Level Houston Center
08:24AM 31.5822 -91.2572 253° West 434 499 26,000  Level Houston Center
08:25AM 31.5478 -91.3936 254° West 437 503 26,000  Level Houston Center
08:26AM 31.5136 -91.5300 254° West 437 503 26,000  Level Houston Center
08:27AM 31.4783 -91.6658 253° West 437 503 26,000  Level Houston Center
08:28AM 31.4414 -91.8017 252° West 437 503 26,000  Level Houston Center
08:29AM 31.4053 -91.9372 253° West 437 503 26,000  Level Houston Center
08:30AM 31.3689 -92.0736 253° West 439 505 26,000  Level Houston Center
08:31AM 31.3322 -92.2117 253° West 442 509 26,000  Level Houston Center
08:32AM 31.2894 -92.3731 253° West 439 505 26,000  Level Houston Center
08:33AM 31.2519 -92.5072 252° West 436 502 26,000  Level Houston Center
08:34AM 31.1864 -92.6278 238° Southwest 442 509 26,000  Level Houston Center
08:35AM 31.1194 -92.7461 237° Southwest 436 502 26,000  Level Houston Center
08:37AM 31.0533 -92.8642 237° Southwest 436 502 26,000  Level Houston Center
08:38AM 30.9867 -92.9833 237° Southwest 440 506 26,000  Level Houston Center
08:39AM 30.9197 -93.1011 236° Southwest 439 505 26,000 -60 Level Houston Center
08:40AM 30.8844 -93.2600 256° West 447 514 25,900  Descending Houston Center
08:41AM 30.9283 -93.3911 291° West 442 509 26,000  Climbing Houston Center
08:42AM 30.9844 -93.5206 297° West 450 518 26,000  Level Houston Center
08:43AM 31.0411 -93.6478 297° West 447 514 26,000  Level Houston Center
08:44AM 31.0986 -93.7772 297° West 450 518 26,000 -720 Level Houston Center
08:45AM 31.1456 -93.9125 292° West 425 489 24,600 -1,020 Descending Houston Center
08:46AM 31.1003 -94.0125 242° Southwest 359 413 24,000 -540 Descending Houston Center
08:47AM 31.0142 -94.0517 201° Southwest 334 384 23,600 -1,260 Descending Houston Center
08:48AM 30.9128 -94.0914 199° South 344 396 21,500 -1,320 Descending Houston Center
08:49AM 30.8289 -94.1236 198° South 323 372 21,000 -300 Descending Houston Center
08:50AM 30.7456 -94.1550 198° South 317 365 21,000  Level Houston Center
08:51AM 30.6550 -94.1592 182° South 327 376 21,000 -240 Level Houston Center
08:52AM 30.5394 -94.1544 178° South 352 405 20,600 -1,680 Descending Houston Center
08:53AM 30.4894 -94.1856 208° Southwest 352 405 18,400 -4,080 Descending Houston Center
08:53AM 30.4461 -94.2131 209° Southwest 356 410 16,300 -3,180 Descending Houston Center
08:54AM 30.3672 -94.2611 208° Southwest 353 406 13,700 -2,100 Descending Houston Center
08:55AM 30.2872 -94.3094 208° Southwest 330 380 12,100 -840 Descending Houston Center
08:56AM 30.2119 -94.3606 210° Southwest 319 367 12,000 -240 Descending Houston Center
08:57AM 30.1822 -94.4544 250° West 318 366 11,700 -840 Descending Houston Center
08:58AM 30.1644 -94.5622 259° West 326 375 10,400 -840 Descending Houston Center
08:59AM 30.1481 -94.6586 259° West 311 358 10,000 -1,020 Descending Houston Center
09:00AM 30.1283 -94.7678 258° West 258 297 8,300 -1,620 Descending Houston Center
09:01AM 30.1161 -94.8392 259° West 244 281 6,800 -1,200 Descending Houston Center
09:02AM 30.1044 -94.9156 260° West 234 269 6,000 -420 Descending Houston Center
09:03AM 30.1058 -94.9903 271° West 246 283 6,000  Level Houston Center
09:04AM 30.1061 -95.0869 270° West 266 306 6,000  Level Houston Center
09:05AM 30.1069 -95.1519 271° West 251 289 6,000  Level Houston Center
09:06AM 30.1056 -95.2417 269° West 257 296 6,000  Level Houston Center
09:07AM 30.1081 -95.3228 272° West 244 281 6,000 -360 Level Houston Center
09:08AM 30.1069 -95.3936 269° West 212 244 5,300 -1,020 Descending Houston Center
09:09AM 30.1072 -95.4661 270° West 212 244 4,000 -1,080 Descending Houston Center
09:10AM 30.1086 -95.5303 271° West 217 250 3,000 -540 Descending Houston Center
09:12AM 30.0972 -95.6122 261° West 217 250 3,000  Level Houston Center
09:12AM 30.0886 -95.6783 261° West 223 257 3,000  Level Houston Center
09:13AM 30.0472 -95.7097 213° Southwest 186 214 3,000  Level Houston Center
09:15AM 30.0067 -95.6783 146° Southeast 215 247 3,000  Level Houston Center
09:16AM 30.0067 -95.6083 90° East 209 241 3,000  Level Houston Center
09:16AM 30.0058 -95.5531 91° East 194 223 3,100 60 Climbing Houston Center